createdAt,value
2022-12-23T00:01:02.798Z,9.50
2022-12-23T00:03:30.017Z,9.60
2022-12-23T00:05:57.181Z,9.60
2022-12-23T00:08:24.291Z,9.60
2022-12-23T00:10:51.377Z,9.70
2022-12-23T00:13:36.852Z,9.80
2022-12-23T00:16:03.763Z,9.80
2022-12-23T00:18:30.679Z,9.80
2022-12-23T00:21:03.328Z,9.80
2022-12-23T00:23:33.935Z,9.80
2022-12-23T00:26:00.961Z,9.90
2022-12-23T00:28:28.122Z,9.90
2022-12-23T00:31:02.045Z,9.90
2022-12-23T00:33:30.224Z,10.00
2022-12-23T00:35:57.143Z,10.00
2022-12-23T00:38:42.759Z,10.00
2022-12-23T00:41:32.462Z,9.90
2022-12-23T00:43:59.896Z,10.00
2022-12-23T00:46:27.287Z,10.00
2022-12-23T00:49:12.470Z,10.00
2022-12-23T00:51:39.464Z,10.00
2022-12-23T00:54:06.491Z,10.10
2022-12-23T00:56:33.565Z,10.00
2022-12-23T00:59:00.521Z,10.10
2022-12-23T01:01:46.112Z,10.10
2022-12-23T01:04:32.727Z,10.20
2022-12-23T01:06:59.529Z,10.30
2022-12-23T01:09:26.638Z,10.40
2022-12-23T01:11:53.452Z,10.50
2022-12-23T01:14:20.587Z,10.50
2022-12-23T01:16:47.678Z,10.60
2022-12-23T01:19:14.440Z,10.60
2022-12-23T01:21:41.219Z,10.70
2022-12-23T01:24:08.547Z,10.70
2022-12-23T01:26:35.284Z,10.70
2022-12-23T01:29:02.392Z,10.70
2022-12-23T01:31:29.261Z,10.80
2022-12-23T01:33:56.041Z,10.80
2022-12-23T01:36:22.689Z,10.80
2022-12-23T01:38:49.521Z,10.90
2022-12-23T01:41:40.699Z,10.90
2022-12-23T01:44:25.883Z,10.90
2022-12-23T01:46:52.586Z,10.90
2022-12-23T01:49:19.331Z,10.90
2022-12-23T01:51:46.139Z,10.90
2022-12-23T01:54:12.881Z,11.00
2022-12-23T01:56:40.014Z,10.90
2022-12-23T01:59:09.783Z,10.90
2022-12-23T02:01:55.695Z,10.90
2022-12-23T02:04:24.861Z,10.80
2022-12-23T02:07:10.212Z,10.80
2022-12-23T02:09:38.265Z,10.80
2022-12-23T02:12:04.833Z,10.80
2022-12-23T02:15:08.793Z,10.90
2022-12-23T02:17:41.627Z,10.90
2022-12-23T02:20:14.373Z,10.80
2022-12-23T02:23:00.022Z,10.90
2022-12-23T02:25:32.486Z,10.90
2022-12-23T02:27:59.153Z,10.90
2022-12-23T02:30:43.028Z,10.90
2022-12-23T02:33:16.201Z,11.00
2022-12-23T02:35:57.192Z,11.00
2022-12-23T02:38:23.826Z,11.00
2022-12-23T02:40:57.418Z,11.00
2022-12-23T02:43:27.197Z,11.00
2022-12-23T02:45:53.918Z,11.10
2022-12-23T02:48:31.392Z,11.00
2022-12-23T02:50:58.616Z,11.10
2022-12-23T02:53:28.004Z,11.00
2022-12-23T02:55:56.072Z,11.00
2022-12-23T02:58:25.049Z,11.00
2022-12-23T03:00:52.161Z,10.90
2022-12-23T03:03:21.168Z,10.90
2022-12-23T03:05:49.937Z,10.90
2022-12-23T03:08:18.679Z,10.90
2022-12-23T03:10:54.193Z,10.90
2022-12-23T03:13:23.644Z,10.90
2022-12-23T03:15:59.267Z,11.00
2022-12-23T03:18:44.908Z,11.00
2022-12-23T03:21:14.782Z,10.90
2022-12-23T03:23:55.963Z,10.90
2022-12-23T03:26:32.793Z,10.90
2022-12-23T03:29:22.840Z,11.00
2022-12-23T03:31:50.459Z,10.90
2022-12-23T03:34:20.344Z,11.00
2022-12-23T03:36:51.594Z,10.90
2022-12-23T03:39:21.732Z,10.90
2022-12-23T03:41:50.755Z,10.90
2022-12-23T03:44:21.134Z,11.00
2022-12-23T03:46:51.625Z,10.90
2022-12-23T03:49:28.135Z,10.90
2022-12-23T03:52:01.534Z,10.90
2022-12-23T03:54:31.940Z,10.90
2022-12-23T03:57:01.660Z,11.00
2022-12-23T03:59:30.323Z,10.90
2022-12-23T04:02:03.893Z,10.90
2022-12-23T04:04:36.284Z,10.90
2022-12-23T04:07:10.977Z,10.90
2022-12-23T04:09:38.108Z,11.00
2022-12-23T04:12:04.944Z,11.00
2022-12-23T04:14:32.415Z,11.10
2022-12-23T04:16:59.269Z,11.10
2022-12-23T04:19:25.927Z,11.00
2022-12-23T04:21:54.238Z,11.00
2022-12-23T04:24:20.872Z,10.90
2022-12-23T04:26:47.539Z,10.90
2022-12-23T04:29:14.457Z,10.90
2022-12-23T04:31:41.256Z,10.80
2022-12-23T04:34:08.022Z,10.90
2022-12-23T04:36:34.755Z,10.90
2022-12-23T04:39:01.613Z,10.90
2022-12-23T04:41:28.308Z,10.80
2022-12-23T04:43:54.940Z,10.80
2022-12-23T04:46:21.766Z,10.90
2022-12-23T04:48:48.473Z,10.80
2022-12-23T04:51:15.139Z,10.80
2022-12-23T04:53:41.858Z,10.80
2022-12-23T04:56:08.632Z,10.80
2022-12-23T04:58:35.332Z,10.80
2022-12-23T05:01:06.201Z,10.80
2022-12-23T05:03:33.069Z,10.90
2022-12-23T05:06:00.052Z,10.90
2022-12-23T05:08:26.797Z,10.90
2022-12-23T05:10:53.536Z,10.90
2022-12-23T05:13:20.302Z,10.90
2022-12-23T05:15:48.942Z,10.90
2022-12-23T05:18:15.681Z,11.00
2022-12-23T05:20:42.542Z,11.00
2022-12-23T05:23:09.521Z,11.00
2022-12-23T05:25:39.849Z,11.00
2022-12-23T05:28:07.971Z,11.10
2022-12-23T05:30:34.746Z,11.10
2022-12-23T05:33:01.546Z,11.10
2022-12-23T05:35:28.511Z,11.10
2022-12-23T05:37:55.171Z,11.10
2022-12-23T05:40:23.762Z,11.20
2022-12-23T05:42:52.422Z,11.30
2022-12-23T05:45:19.076Z,11.10
2022-12-23T05:47:45.848Z,11.20
2022-12-23T05:50:12.768Z,11.20
2022-12-23T05:52:39.439Z,11.20
2022-12-23T05:55:06.334Z,11.20
2022-12-23T05:57:33.092Z,11.20
2022-12-23T05:59:59.780Z,11.30
2022-12-23T06:02:26.558Z,11.30
2022-12-23T06:04:53.345Z,11.30
2022-12-23T06:07:19.953Z,11.20
2022-12-23T06:09:46.587Z,11.20
2022-12-23T06:12:13.320Z,11.20
2022-12-23T06:14:40.035Z,11.30
2022-12-23T06:17:06.814Z,11.20
2022-12-23T06:19:33.554Z,11.20
2022-12-23T06:22:00.792Z,11.20
2022-12-23T06:24:27.575Z,11.20
2022-12-23T06:26:57.242Z,11.20
2022-12-23T06:29:24.629Z,11.20
2022-12-23T06:31:51.373Z,11.30
2022-12-23T06:34:18.341Z,11.30
2022-12-23T06:36:45.043Z,11.30
2022-12-23T06:39:11.763Z,11.30
2022-12-23T06:41:38.501Z,11.30
2022-12-23T06:44:05.389Z,11.20
2022-12-23T06:46:32.197Z,11.20
2022-12-23T06:48:59.173Z,11.20
2022-12-23T06:51:25.893Z,11.30
2022-12-23T06:53:52.758Z,11.20
2022-12-23T06:56:19.545Z,11.30
2022-12-23T06:58:46.270Z,11.30
2022-12-23T07:01:13.036Z,11.20
2022-12-23T07:03:39.880Z,11.20
2022-12-23T07:06:06.730Z,11.20
2022-12-23T07:08:33.392Z,11.20
2022-12-23T07:11:00.804Z,11.30
2022-12-23T07:13:27.600Z,11.30
2022-12-23T07:15:54.329Z,11.30
2022-12-23T07:18:24.263Z,11.20
2022-12-23T07:20:51.440Z,11.30
2022-12-23T07:23:18.509Z,11.30
2022-12-23T07:25:45.299Z,11.30
2022-12-23T07:28:12.024Z,11.30
2022-12-23T07:30:38.728Z,11.30
2022-12-23T07:33:05.380Z,11.30
2022-12-23T07:35:32.174Z,11.30
2022-12-23T07:37:58.854Z,11.30
2022-12-23T07:40:25.890Z,11.30
2022-12-23T07:42:56.657Z,11.30
2022-12-23T07:45:23.497Z,11.30
2022-12-23T07:47:54.606Z,11.30
2022-12-23T07:50:21.462Z,11.20
2022-12-23T07:52:48.120Z,11.20
2022-12-23T07:55:14.966Z,11.20
2022-12-23T07:57:41.723Z,11.20
2022-12-23T08:00:10.239Z,11.30
2022-12-23T08:02:37.463Z,11.30
2022-12-23T08:05:04.491Z,11.30
2022-12-23T08:07:31.176Z,11.30
2022-12-23T08:09:57.873Z,11.20
2022-12-23T08:12:24.917Z,11.20
2022-12-23T08:14:53.964Z,11.20
2022-12-23T08:17:23.764Z,11.30
2022-12-23T08:19:50.532Z,11.30
2022-12-23T08:22:17.346Z,11.20
2022-12-23T08:24:44.263Z,11.20
2022-12-23T08:27:11.045Z,11.20
2022-12-23T08:29:38.912Z,11.10
2022-12-23T08:32:06.088Z,11.00
2022-12-23T08:34:33.107Z,11.00
2022-12-23T08:36:59.832Z,11.00
2022-12-23T08:39:26.635Z,11.00
2022-12-23T08:41:53.828Z,11.20
2022-12-23T08:44:21.376Z,11.30
2022-12-23T08:46:48.157Z,11.40
2022-12-23T08:49:15.294Z,11.50
2022-12-23T08:51:42.692Z,11.50
2022-12-23T08:54:10.265Z,11.60
2022-12-23T08:56:39.451Z,11.70
2022-12-23T08:59:06.842Z,11.70
2022-12-23T09:01:34.697Z,11.80
2022-12-23T09:04:03.280Z,11.80
2022-12-23T09:06:32.909Z,11.90
2022-12-23T09:09:00.109Z,11.90
2022-12-23T09:11:27.870Z,12.00
2022-12-23T09:13:55.292Z,11.90
2022-12-23T09:16:22.515Z,11.90
2022-12-23T09:18:49.215Z,12.00
2022-12-23T09:21:18.153Z,12.00
2022-12-23T09:23:44.877Z,12.00
2022-12-23T09:26:16.983Z,12.00
2022-12-23T09:28:43.784Z,12.10
2022-12-23T09:31:11.495Z,12.10
2022-12-23T09:33:38.842Z,12.20
2022-12-23T09:36:06.291Z,12.20
2022-12-23T09:38:33.312Z,12.20
2022-12-23T09:41:26.528Z,12.20
2022-12-23T09:44:00.913Z,12.30
2022-12-23T09:46:28.729Z,12.30
2022-12-23T09:48:58.239Z,12.40
2022-12-23T09:51:25.145Z,12.50
2022-12-23T09:54:04.995Z,12.50
2022-12-23T09:56:38.275Z,12.60
2022-12-23T09:59:04.913Z,12.60
2022-12-23T10:01:34.068Z,12.60
2022-12-23T10:04:00.940Z,12.70
2022-12-23T10:06:29.058Z,12.70
2022-12-23T10:08:58.996Z,12.70
2022-12-23T10:11:27.790Z,12.70
2022-12-23T10:13:56.857Z,12.70
2022-12-23T10:16:25.126Z,12.60
2022-12-23T10:19:00.095Z,12.60
2022-12-23T10:21:32.286Z,12.60
2022-12-23T10:24:01.678Z,12.60
2022-12-23T10:26:34.638Z,12.40
2022-12-23T10:29:08.381Z,12.30
2022-12-23T10:31:58.241Z,12.30
2022-12-23T10:34:38.155Z,12.40
2022-12-23T10:37:25.569Z,12.50
2022-12-23T10:39:55.343Z,12.50
2022-12-23T10:42:25.002Z,12.50
2022-12-23T10:45:06.784Z,12.60
2022-12-23T10:47:33.519Z,12.70
2022-12-23T10:50:03.415Z,12.80
2022-12-23T10:52:32.689Z,12.90
2022-12-23T10:54:59.374Z,13.00
2022-12-23T10:57:26.494Z,13.10
2022-12-23T10:59:53.230Z,13.00
2022-12-23T11:02:46.094Z,13.10
2022-12-23T11:05:14.931Z,13.00
2022-12-23T11:07:44.659Z,13.10
2022-12-23T11:10:19.888Z,13.00
2022-12-23T11:12:48.028Z,13.00
2022-12-23T11:15:35.143Z,13.10
2022-12-23T11:18:06.313Z,13.10
2022-12-23T11:20:34.049Z,13.10
2022-12-23T11:23:02.367Z,13.10
2022-12-23T11:25:32.355Z,13.10
2022-12-23T11:27:59.148Z,13.10
2022-12-23T11:30:26.196Z,13.20
2022-12-23T11:32:52.890Z,13.20
2022-12-23T11:35:33.100Z,13.20
2022-12-23T11:38:00.581Z,13.20
2022-12-23T11:40:29.339Z,13.20
2022-12-23T11:42:58.006Z,13.20
2022-12-23T11:45:26.599Z,13.10
2022-12-23T11:47:53.693Z,13.10
2022-12-23T11:50:20.345Z,13.10
2022-12-23T11:52:56.157Z,13.10
2022-12-23T11:55:23.795Z,13.10
2022-12-23T11:57:51.156Z,13.00
2022-12-23T12:00:26.272Z,13.00
2022-12-23T12:02:54.508Z,13.00
2022-12-23T12:05:40.754Z,12.90
2022-12-23T12:08:13.157Z,12.90
2022-12-23T12:10:40.864Z,12.90
2022-12-23T12:13:23.199Z,12.90
2022-12-23T12:15:49.990Z,12.80
2022-12-23T12:18:19.187Z,12.80
2022-12-23T12:20:47.854Z,12.80
2022-12-23T12:23:21.014Z,12.70
2022-12-23T12:25:58.002Z,12.70
2022-12-23T12:28:28.801Z,12.60
2022-12-23T12:31:04.913Z,12.70
2022-12-23T12:33:35.008Z,12.70
2022-12-23T12:36:22.015Z,12.70
2022-12-23T12:38:49.144Z,12.70
2022-12-23T12:41:18.607Z,12.70
2022-12-23T12:43:57.054Z,12.70
2022-12-23T12:46:35.542Z,12.70
2022-12-23T12:49:21.120Z,12.70
2022-12-23T12:51:51.063Z,12.70
2022-12-23T12:54:32.451Z,12.70
2022-12-23T12:56:59.495Z,12.70
2022-12-23T12:59:27.876Z,12.60
2022-12-23T13:02:21.046Z,12.70
2022-12-23T13:04:47.967Z,12.60
2022-12-23T13:07:42.566Z,12.60
2022-12-23T13:10:15.157Z,12.60
2022-12-23T13:12:41.846Z,12.60
2022-12-23T13:15:08.544Z,12.50
2022-12-23T13:17:43.949Z,12.50
2022-12-23T13:20:19.667Z,12.50
2022-12-23T13:22:47.618Z,12.40
2022-12-23T13:25:14.294Z,12.40
2022-12-23T13:27:55.905Z,12.40
2022-12-23T13:30:24.512Z,12.40
2022-12-23T13:33:05.386Z,12.40
2022-12-23T13:35:38.999Z,12.40
2022-12-23T13:38:12.488Z,12.40
2022-12-23T13:40:46.789Z,12.40
2022-12-23T13:43:19.945Z,12.30
2022-12-23T13:45:47.392Z,12.40
2022-12-23T13:48:32.910Z,12.30
2022-12-23T13:51:08.606Z,12.30
2022-12-23T13:53:55.286Z,12.30
2022-12-23T13:56:30.316Z,12.30
2022-12-23T13:58:57.475Z,12.30
2022-12-23T14:01:33.440Z,12.30
2022-12-23T14:04:20.156Z,12.30
2022-12-23T14:06:48.628Z,12.30
2022-12-23T14:09:16.489Z,12.20
2022-12-23T14:11:45.059Z,12.30
2022-12-23T14:14:21.270Z,12.20
2022-12-23T14:16:57.424Z,12.20
2022-12-23T14:19:30.323Z,12.20
2022-12-23T14:22:03.016Z,12.10
2022-12-23T14:24:48.434Z,12.10
2022-12-23T14:27:15.058Z,12.10
2022-12-23T14:30:05.563Z,12.10
2022-12-23T14:32:53.298Z,12.10
2022-12-23T14:35:34.363Z,12.10
2022-12-23T14:38:05.098Z,12.10
2022-12-23T14:40:40.494Z,12.10
2022-12-23T14:43:23.397Z,12.10
2022-12-23T14:45:51.141Z,12.10
2022-12-23T14:48:35.921Z,12.10
2022-12-23T14:51:06.717Z,12.00
2022-12-23T14:53:34.126Z,12.00
2022-12-23T14:56:09.955Z,11.90
2022-12-23T14:58:38.808Z,11.90
2022-12-23T15:01:15.320Z,11.90
2022-12-23T15:03:44.493Z,11.90
2022-12-23T15:06:14.237Z,12.00
2022-12-23T15:08:42.115Z,12.00
2022-12-23T15:11:15.317Z,12.00
2022-12-23T15:13:42.253Z,12.10
2022-12-23T15:16:14.721Z,12.20
2022-12-23T15:18:54.876Z,12.20
2022-12-23T15:21:26.908Z,12.10
2022-12-23T15:23:53.535Z,12.20
2022-12-23T15:26:21.456Z,12.20
2022-12-23T15:28:48.115Z,12.20
2022-12-23T15:31:47.743Z,12.30
2022-12-23T15:34:20.603Z,12.30
2022-12-23T15:36:48.018Z,12.40
2022-12-23T15:39:19.633Z,12.40
2022-12-23T15:41:47.821Z,12.50
2022-12-23T15:44:22.764Z,12.60
2022-12-23T15:46:50.514Z,12.60
2022-12-23T15:49:18.047Z,12.60
2022-12-23T15:52:07.078Z,12.70
2022-12-23T15:54:36.906Z,12.70
2022-12-23T15:57:09.709Z,12.70
2022-12-23T15:59:37.570Z,12.70
2022-12-23T16:02:49.700Z,12.80
2022-12-23T16:05:08.163Z,12.90
2022-12-23T16:07:39.847Z,12.90
2022-12-23T16:10:16.568Z,12.90
2022-12-23T16:12:44.589Z,12.90
2022-12-23T16:15:25.289Z,12.90
2022-12-23T16:17:52.164Z,12.90
2022-12-23T16:20:25.793Z,12.90
2022-12-23T16:22:57.540Z,12.90
2022-12-23T16:25:31.722Z,12.80
2022-12-23T16:28:04.048Z,12.80
2022-12-23T16:30:32.096Z,12.80
2022-12-23T16:33:00.086Z,12.80
2022-12-23T16:35:50.140Z,12.80
2022-12-23T16:38:16.946Z,12.80
2022-12-23T16:40:47.567Z,12.80
2022-12-23T16:43:15.487Z,12.80
2022-12-23T16:45:43.708Z,12.70
2022-12-23T16:48:16.149Z,12.70
2022-12-23T16:50:49.123Z,12.80
2022-12-23T16:53:15.947Z,12.90
2022-12-23T16:55:52.431Z,12.90
2022-12-23T16:58:26.522Z,12.90
2022-12-23T17:00:53.395Z,12.90
2022-12-23T17:03:29.277Z,12.90
2022-12-23T17:05:55.932Z,12.90
2022-12-23T17:08:25.727Z,12.90
2022-12-23T17:10:52.588Z,13.00
2022-12-23T17:13:19.547Z,12.90
2022-12-23T17:15:46.279Z,12.90
2022-12-23T17:18:14.549Z,12.80
2022-12-23T17:20:44.612Z,12.80
2022-12-23T17:23:30.031Z,12.80
2022-12-23T17:25:56.873Z,12.80
2022-12-23T17:28:24.333Z,12.80
2022-12-23T17:30:52.336Z,12.90
2022-12-23T17:33:20.272Z,12.80
2022-12-23T17:35:48.046Z,12.90
2022-12-23T17:38:16.137Z,12.80
2022-12-23T17:40:45.151Z,12.90
2022-12-23T17:43:15.681Z,12.90
2022-12-23T17:45:42.936Z,12.90
2022-12-23T17:48:19.737Z,12.90
2022-12-23T17:50:48.624Z,12.80
2022-12-23T17:53:18.935Z,12.80
2022-12-23T17:55:46.205Z,12.80
2022-12-23T17:58:14.264Z,12.80
2022-12-23T18:00:41.159Z,12.90
2022-12-23T18:03:15.845Z,12.90
2022-12-23T18:05:42.533Z,12.90
2022-12-23T18:08:09.122Z,12.90
2022-12-23T18:10:39.177Z,12.90
2022-12-23T18:13:07.275Z,12.90
2022-12-23T18:15:35.293Z,12.90
2022-12-23T18:18:02.688Z,12.90
2022-12-23T18:20:29.689Z,13.00
2022-12-23T18:22:57.531Z,13.10
2022-12-23T18:25:28.654Z,13.10
2022-12-23T18:27:55.473Z,13.20
2022-12-23T18:30:22.660Z,13.00
2022-12-23T18:32:49.359Z,13.00
2022-12-23T18:35:18.864Z,12.90
2022-12-23T18:37:45.652Z,12.70
2022-12-23T18:40:12.474Z,12.70
2022-12-23T18:42:39.129Z,12.60
2022-12-23T18:45:20.961Z,12.60
2022-12-23T18:47:47.606Z,12.60
2022-12-23T18:50:14.305Z,12.50
2022-12-23T18:52:40.985Z,12.50
2022-12-23T18:55:07.801Z,12.50
2022-12-23T18:57:34.449Z,12.50
2022-12-23T19:00:01.239Z,12.50
2022-12-23T19:02:27.947Z,12.40
2022-12-23T19:04:54.768Z,12.40
2022-12-23T19:07:21.479Z,12.30
2022-12-23T19:09:48.404Z,12.20
2022-12-23T19:12:15.374Z,12.20
2022-12-23T19:14:42.061Z,12.10
2022-12-23T19:17:08.884Z,12.10
2022-12-23T19:19:38.163Z,11.90
2022-12-23T19:22:04.829Z,11.90
2022-12-23T19:24:31.716Z,11.90
2022-12-23T19:26:58.491Z,11.90
2022-12-23T19:29:25.247Z,11.90
2022-12-23T19:31:51.980Z,11.90
2022-12-23T19:34:18.780Z,11.80
2022-12-23T19:36:45.825Z,11.90
2022-12-23T19:39:17.266Z,11.90
2022-12-23T19:41:44.300Z,12.00
2022-12-23T19:44:11.073Z,12.00
2022-12-23T19:46:37.810Z,12.00
2022-12-23T19:49:04.601Z,12.00
2022-12-23T19:51:31.493Z,12.10
2022-12-23T19:53:58.523Z,12.10
2022-12-23T19:56:26.072Z,12.10
2022-12-23T19:58:53.039Z,12.20
2022-12-23T20:01:19.846Z,12.20
2022-12-23T20:03:47.797Z,12.10
2022-12-23T20:06:19.163Z,12.10
2022-12-23T20:08:46.776Z,12.10
2022-12-23T20:11:15.163Z,12.20
2022-12-23T20:13:42.023Z,12.20
2022-12-23T20:16:09.045Z,12.30
2022-12-23T20:18:36.029Z,12.30
2022-12-23T20:21:02.887Z,12.40
2022-12-23T20:23:30.567Z,12.30
2022-12-23T20:25:57.342Z,12.30
2022-12-23T20:28:24.425Z,12.30
2022-12-23T20:31:00.528Z,12.30
2022-12-23T20:33:27.399Z,12.20
2022-12-23T20:35:54.147Z,12.20
2022-12-23T20:38:20.921Z,12.20
2022-12-23T20:40:47.610Z,12.10
2022-12-23T20:43:15.438Z,12.10
2022-12-23T20:45:43.048Z,12.00
2022-12-23T20:48:10.174Z,12.00
2022-12-23T20:50:40.191Z,12.00
2022-12-23T20:53:07.193Z,12.00
2022-12-23T20:55:33.842Z,11.90
2022-12-23T20:58:23.191Z,11.90
2022-12-23T21:00:50.298Z,11.80
2022-12-23T21:03:17.115Z,11.80
2022-12-23T21:05:43.926Z,11.70
2022-12-23T21:08:10.734Z,11.70
2022-12-23T21:10:37.398Z,11.80
2022-12-23T21:13:04.323Z,11.80
2022-12-23T21:15:31.886Z,11.80
2022-12-23T21:17:59.183Z,11.80
2022-12-23T21:20:26.341Z,11.80
2022-12-23T21:22:53.047Z,11.80
2022-12-23T21:25:20.036Z,11.80
2022-12-23T21:27:46.737Z,11.80
2022-12-23T21:30:13.688Z,11.80
2022-12-23T21:32:40.542Z,11.70
2022-12-23T21:35:07.533Z,11.60
2022-12-23T21:37:34.331Z,11.50
2022-12-23T21:40:01.075Z,11.40
2022-12-23T21:42:27.799Z,11.30
2022-12-23T21:44:54.620Z,11.30
2022-12-23T21:47:21.320Z,11.30
2022-12-23T21:49:48.059Z,11.30
2022-12-23T21:52:14.818Z,11.20
2022-12-23T21:54:41.680Z,11.20
2022-12-23T21:57:08.454Z,11.10
2022-12-23T21:59:35.628Z,11.10
2022-12-23T22:02:02.716Z,11.20
2022-12-23T22:04:29.433Z,11.20
2022-12-23T22:06:56.414Z,11.00
2022-12-23T22:09:23.117Z,11.00
2022-12-23T22:11:50.012Z,10.90
2022-12-23T22:14:18.037Z,10.90
2022-12-23T22:16:44.959Z,10.80
2022-12-23T22:19:12.402Z,10.80
2022-12-23T22:21:39.871Z,10.80
2022-12-23T22:24:07.211Z,10.80
2022-12-23T22:26:34.205Z,10.80
2022-12-23T22:29:02.001Z,10.80
2022-12-23T22:31:34.891Z,10.80
2022-12-23T22:34:01.873Z,10.80
2022-12-23T22:36:28.755Z,10.80
2022-12-23T22:38:56.837Z,10.80
2022-12-23T22:41:25.021Z,10.80
2022-12-23T22:43:51.804Z,10.80
2022-12-23T22:46:19.015Z,10.70
2022-12-23T22:48:46.416Z,10.70
2022-12-23T22:51:14.779Z,10.70
2022-12-23T22:53:41.599Z,10.70
2022-12-23T22:56:08.603Z,10.70
2022-12-23T22:58:35.393Z,10.70
2022-12-23T23:01:02.280Z,10.70
2022-12-23T23:03:29.533Z,10.70
2022-12-23T23:06:00.859Z,10.60
2022-12-23T23:08:28.186Z,10.60
2022-12-23T23:10:57.078Z,10.60
2022-12-23T23:13:25.267Z,10.50
2022-12-23T23:15:52.550Z,10.50
2022-12-23T23:18:19.362Z,10.40
2022-12-23T23:20:46.580Z,10.50
2022-12-23T23:23:13.397Z,10.40
2022-12-23T23:25:40.251Z,10.40
2022-12-23T23:28:07.231Z,10.50
2022-12-23T23:30:33.999Z,10.40
2022-12-23T23:33:00.834Z,10.40
2022-12-23T23:35:27.542Z,10.40
2022-12-23T23:37:54.289Z,10.40
2022-12-23T23:40:21.016Z,10.30
2022-12-23T23:42:47.864Z,10.40
2022-12-23T23:45:14.501Z,10.40
2022-12-23T23:47:41.293Z,10.30
2022-12-23T23:50:09.517Z,10.30
2022-12-23T23:52:36.531Z,10.30
2022-12-23T23:55:03.832Z,10.30
2022-12-23T23:57:30.725Z,10.30
2022-12-23T23:59:57.445Z,10.20
